AirNav   Air Wisconsin pilot careers
 
 1082 users online  

TA20 San Jacinto Methodist Hospital Heliport
Baytown, Texas, USA

GOING TO BAYTOWN?


FAA INFORMATION EFFECTIVE 29 MARCH 2018

Location

FAA Identifier: TA20
Lat/Long: 29-46-07.5400N / 094-58-41.4800W
29-46.125667N / 094-58.691333W
29.7687611 / -94.9781889
(estimated)
Elevation: 23 ft. / 7 m (estimated)
Variation: 06E (1985)
Time zone: UTC -5 (UTC -6 during Standard Time)
Zip code: 77521

Heliport Operations

Heliport use: Private use. Permission required prior to landing
Activation date: 06/1989
Control tower: no
ARTCC: HOUSTON CENTER
FSS: MONTGOMERY COUNTY FLIGHT SERVICE STATION
Attendance: UNATNDD
Wind indicator: lighted
Segmented circle: no

Heliport Communications

WX ASOS at HOU (17 nm SW): PHONE 713-847-1462

Nearby radio navigation aids

VOR radial/distance  VOR name  Freq  Var
HUBr061/17.0HOBBY VOR/DME117.1005E
MHFr311/18.0TRINITY VOR/DME113.6007E
IAHr116/22.2HUMBLE VORTAC116.6005E
VUHr343/30.5SCHOLES VOR/DME113.0006E
DASr209/30.6DAISETTA VORTAC116.9005E

 
NDB name  Hdg/Dist  Freq  Var  ID
NIXIN133/18.332605EBVP -... ...- .--.
GALVESTON328/28.520608EGLS --. .-.. ...

Heliport Services

Runway Information

Helipad H1

Dimensions: 40 x 40 ft. / 12 x 12 m
Surface: concrete
Latitude: 29-46.125667N
Longitude: 094-58.691333W
Elevation: 23.0 ft.
Traffic pattern: leftleft

Heliport Ownership and Management from official FAA records

Ownership: Privately-owned
Owner: SAN JACINTO METHODIST HOSP.
4401 GARTH ROAD
BAYTOWN, TX 77521
Phone 281-420-8765
DBOLEN@HOUSTONMETHODIST.ORG
Manager: DARIN BOLEN
4401 GARTH ROAD
BAYTOWN, TX 77521
Phone 281-720-8851
DBOLEN@HOUSTONMETHODIST.ORG

Instrument Procedures

There are no published instrument procedures at TA20.

Some nearby airports with instrument procedures:

KHPY - Baytown Airport (2 nm NE)
54T - RWJ Airpark (7 nm E)
T41 - La Porte Municipal Airport (7 nm SW)
KEFD - Ellington Airport (14 nm SW)
T00 - Chambers County Airport (16 nm E)
KHOU - William P Hobby Airport (17 nm SW)
 
Loc | Ops | Rwys | IFR | FBO | Links
Com | Nav | Svcs | Stats | Notes

AirNav Hotels Sweepstakes
 
Area around TA20 (San Jacinto Methodist Hospital Heliport)
 
Road maps at: MapQuest Bing Google
 
Aerial photo
No photo
 
Sectional chart

 
Airport distance calculator
Flying to San Jacinto Methodist Hospital Heliport? Find the distance to fly.

From to TA20

Sunrise and sunset
Times for 19-Apr-2018
 Local
(UTC-5)
 Zulu
(UTC)
Morning civil twilight06:2511:25
Sunrise06:5011:50
Sunset19:4800:48
Evening civil twilight20:1301:13

Current date and time
Zulu (UTC)  20-Apr-2018 00:29:06
Local (UTC-5)  19-Apr-2018 19:29:06
 
METAR
KEFD 
14nm SW 
192350Z 04004KT 10SM FEW250 24/04 A3020
KHOU 
18nm SW 
192353Z 02009KT 10SM SCT250 23/04 A3018 RMK AO2 SLP225 T02280044 10261 20228 55005
KLVJ 
21nm SW 
192353Z AUTO 02007KT 10SM CLR 23/06 A3020 RMK AO2 SLP225 T02330061 10256 20233 55005
KIAH 
25nm NW 
192353Z 01007KT 10SM SCT250 23/06 A3020 RMK AO2 SLP225 T02280061 10250 20222 55005
TAF
KEFD 
14nm SW 
191856Z 1918/2018 03012KT 9999 SCT050 QNH3013INS BECMG 1923/1924 04009KT 9999 FEW200 QNH3019INS BECMG 2014/2015 07010G15KT 9999 SCT160 QNH3025INS TX24/1922Z TN13/2012Z
KHOU 
18nm SW 
192059Z 1921/2018 02010G15KT P6SM SCT250 FM192200 04012KT P6SM FEW250 FM201500 09012KT P6SM SCT250
NOTAMs
Click for the latest NOTAMs
NOTAMs are issued by the DoD/FAA and will open in a separate window not controlled by AirNav.

 

 
 

Would you like to see your business listed on this page?

 If your business provides an interesting product or service to pilots, flight crews, aircraft, or users of the San Jacinto Methodist Hospital Heliport, you should consider listing it here.  To start the listing process, click on the button below
 
Add a business
 

Other Pages about San Jacinto Methodist Hospital Heliport

Update a link
 
Copyright © AirNav, LLC. All rights reserved. Privacy Policy  Contact